Time;durP1;ratioP1;P1;durP2;ratioP2;P2;SDS_P1;SDS_P2;PMS_P1;PMS_P2;Temp;Humidity;BMP_temperature;BMP_pressure;BME280_temperature;BME280_humidity;BME280_pressure;Samples;Min_cycle;Max_cycle;Signal;HPM_P1;HPM_P2
2024/01/19 06:25:51;;;;;;;33.85;6.93;;;15.40;92.70;;;;;;1218909;23;20353;-83
2024/01/19 06:28:17;;;;;;;36.35;6.97;;;15.50;92.60;;;;;;5012485;28;20034;-82
2024/01/19 06:30:42;;;;;;;28.73;6.20;;;15.50;92.70;;;;;;5005147;28;20105;-81
2024/01/19 06:33:08;;;;;;;31.83;6.82;;;15.50;92.70;;;;;;5004101;28;20071;-83
2024/01/19 06:35:35;;;;;;;29.50;6.50;;;15.50;92.70;;;;;;5010639;28;20041;-81
2024/01/19 06:38:03;;;;;;;30.42;6.30;;;15.50;92.70;;;;;;5012440;28;20076;-82
2024/01/19 06:40:28;;;;;;;26.77;6.82;;;15.60;92.70;;;;;;5012394;28;20041;-81
2024/01/19 06:42:54;;;;;;;27.10;5.65;;;15.60;92.60;;;;;;5012764;28;20042;-83
2024/01/19 06:45:20;;;;;;;26.65;5.85;;;15.60;92.60;;;;;;5012673;28;20113;-83
2024/01/19 06:47:46;;;;;;;31.23;6.65;;;15.70;92.70;;;;;;5012711;28;20121;-83
2024/01/19 06:50:11;;;;;;;30.23;6.78;;;15.70;92.60;;;;;;5012404;28;20030;-82
2024/01/19 06:52:37;;;;;;;39.78;7.70;;;15.70;92.60;;;;;;5012258;28;20034;-83
2024/01/19 06:55:04;;;;;;;35.35;6.95;;;15.70;92.60;;;;;;5012363;28;20037;-82
2024/01/19 06:57:30;;;;;;;33.42;6.60;;;15.70;92.60;;;;;;5012378;28;20042;-83
2024/01/19 06:59:56;;;;;;;29.38;6.47;;;15.70;92.60;;;;;;5012223;28;20033;-79
2024/01/19 07:02:21;;;;;;;28.92;6.20;;;15.80;92.50;;;;;;5011988;28;20487;-75
2024/01/19 07:04:48;;;;;;;30.20;6.30;;;15.80;92.40;;;;;;5012301;28;20030;-79
2024/01/19 07:07:14;;;;;;;41.47;7.20;;;15.90;92.50;;;;;;5012090;28;20063;-75
2024/01/19 07:09:39;;;;;;;31.33;6.03;;;16.00;92.40;;;;;;5012285;28;20105;-80
2024/01/19 07:12:05;;;;;;;32.75;7.35;;;16.10;92.30;;;;;;5012073;28;20034;-77
2024/01/19 07:14:31;;;;;;;33.00;6.35;;;16.10;92.20;;;;;;5011924;28;20453;-75
2024/01/19 07:16:57;;;;;;;27.42;5.88;;;16.10;92.20;;;;;;5012008;28;20120;-76
2024/01/19 07:19:22;;;;;;;38.00;7.05;;;16.20;92.20;;;;;;5012104;28;20038;-78
2024/01/19 07:21:48;;;;;;;39.13;7.57;;;16.20;92.20;;;;;;5012029;28;20038;-78
2024/01/19 07:24:14;;;;;;;31.42;6.68;;;16.30;92.20;;;;;;5011698;28;20030;-75
2024/01/19 07:26:40;;;;;;;33.28;6.65;;;16.60;92.10;;;;;;4993641;28;20054;-78
2024/01/19 07:29:07;;;;;;;26.75;6.10;;;16.80;91.80;;;;;;5013167;28;20117;-76
2024/01/19 07:31:33;;;;;;;30.20;7.07;;;17.00;91.50;;;;;;5015092;28;20045;-75
2024/01/19 07:33:59;;;;;;;30.80;6.75;;;17.10;91.40;;;;;;4998069;28;20392;-76
2024/01/19 07:36:28;;;;;;;31.02;5.93;;;17.40;91.00;;;;;;5015264;28;20207;-75
2024/01/19 07:38:54;;;;;;;26.85;6.30;;;17.30;91.10;;;;;;5015285;28;20105;-76
2024/01/19 07:41:20;;;;;;;28.95;5.82;;;17.10;91.10;;;;;;5015061;28;20158;-77
2024/01/19 07:43:46;;;;;;;30.75;5.90;;;17.30;91.20;;;;;;5014924;28;20045;-76
2024/01/19 07:46:14;;;;;;;28.38;6.93;;;17.40;90.90;;;;;;5015050;28;20042;-75
2024/01/19 07:48:39;;;;;;;33.35;6.05;;;17.30;90.80;;;;;;5015136;28;20037;-75
2024/01/19 07:51:05;;;;;;;30.45;5.90;;;17.20;90.80;;;;;;5014835;28;20399;-75
2024/01/19 07:53:31;;;;;;;32.70;7.13;;;17.10;91.00;;;;;;4997109;28;20041;-75
2024/01/19 07:55:57;;;;;;;37.15;7.90;;;17.10;91.10;;;;;;5014869;28;20030;-77
2024/01/19 07:58:24;;;;;;;27.33;6.43;;;17.00;91.10;;;;;;5014709;28;20404;-75
2024/01/19 08:00:49;;;;;;;38.47;8.18;;;17.00;91.10;;;;;;5014518;28;20026;-76
2024/01/19 08:03:16;;;;;;;33.58;7.47;;;17.10;91.20;;;;;;5014748;28;20048;-75
2024/01/19 08:05:41;;;;;;;33.97;7.05;;;17.10;91.20;;;;;;5014704;28;20105;-75
2024/01/19 08:08:07;;;;;;;37.67;7.60;;;17.10;91.10;;;;;;5015004;28;20182;-74
2024/01/19 08:10:35;;;;;;;33.55;7.95;;;17.10;91.20;;;;;;5014373;28;20053;-76
2024/01/19 08:13:01;;;;;;;35.25;7.05;;;17.10;91.10;;;;;;5007352;28;20112;-76
2024/01/19 08:15:28;;;;;;;42.15;7.60;;;17.10;91.20;;;;;;4996631;28;20042;-75
2024/01/19 08:17:54;;;;;;;27.45;5.88;;;17.10;91.10;;;;;;4994732;28;20054;-75
2024/01/19 08:20:20;;;;;;;36.00;6.68;;;17.10;91.20;;;;;;5007375;28;20419;-75
2024/01/19 08:22:47;;;;;;;30.77;6.38;;;17.20;91.10;;;;;;5014159;28;20079;-75
2024/01/19 08:25:14;;;;;;;29.42;6.13;;;17.20;91.10;;;;;;5014232;28;20444;-77
2024/01/19 08:27:43;;;;;;;30.40;6.05;;;17.20;91.00;;;;;;5014089;28;20050;-77
2024/01/19 08:30:10;;;;;;;33.72;7.25;;;17.30;91.00;;;;;;5014433;28;20037;-75
2024/01/19 08:32:36;;;;;;;33.92;6.90;;;17.30;90.90;;;;;;5014442;28;20505;-75
2024/01/19 08:35:08;;;;;;;28.67;5.90;;;17.30;90.80;;;;;;5014613;28;20487;-75
2024/01/19 08:37:40;;;;;;;28.90;6.93;;;17.40;90.90;;;;;;5014222;28;20499;-75
2024/01/19 08:40:07;;;;;;;30.00;6.55;;;17.40;90.70;;;;;;5014335;28;20172;-75
2024/01/19 08:42:32;;;;;;;32.03;6.03;;;17.40;90.70;;;;;;5014341;28;20147;-76
2024/01/19 08:44:58;;;;;;;31.05;6.03;;;17.40;90.80;;;;;;5014804;28;20026;-76
2024/01/19 08:47:25;;;;;;;27.92;6.18;;;17.40;90.80;;;;;;5014300;28;20045;-75
2024/01/19 08:49:50;;;;;;;32.80;6.50;;;17.40;90.70;;;;;;5014086;28;20064;-75
2024/01/19 08:52:16;;;;;;;27.30;6.32;;;17.40;90.60;;;;;;5014199;28;20038;-76
2024/01/19 08:54:42;;;;;;;35.20;6.70;;;17.40;90.60;;;;;;5014174;28;20034;-75
2024/01/19 08:57:07;;;;;;;26.38;5.93;;;17.40;90.60;;;;;;5014636;28;20041;-76
2024/01/19 08:59:33;;;;;;;31.27;6.80;;;17.40;90.60;;;;;;5014507;28;20038;-75
2024/01/19 09:01:59;;;;;;;32.38;5.57;;;17.40;90.50;;;;;;5013727;28;20026;-76
2024/01/19 09:04:25;;;;;;;29.45;6.47;;;17.50;90.60;;;;;;5013828;28;20057;-75
2024/01/19 09:06:55;;;;;;;32.70;6.20;;;17.50;90.50;;;;;;5013757;28;20522;-75
2024/01/19 09:09:21;;;;;;;33.70;7.00;;;17.50;90.40;;;;;;5013876;28;20042;-75
2024/01/19 09:11:47;;;;;;;37.15;7.50;;;17.60;90.40;;;;;;5012805;28;20560;-76
2024/01/19 09:14:13;;;;;;;28.77;6.20;;;17.60;90.30;;;;;;5005255;28;20125;-76
2024/01/19 09:16:43;;;;;;;28.50;7.00;;;17.70;90.30;;;;;;4993962;28;20060;-75
2024/01/19 09:19:09;;;;;;;30.80;5.90;;;17.70;90.20;;;;;;4993930;28;20054;-76
2024/01/19 09:21:34;;;;;;;27.67;5.60;;;17.70;90.20;;;;;;5011034;28;20033;-76
2024/01/19 09:24:00;;;;;;;30.88;6.18;;;17.80;90.00;;;;;;5013500;28;20496;-75
2024/01/19 09:26:26;;;;;;;27.38;6.95;;;17.80;89.90;;;;;;5013110;28;20045;-76
2024/01/19 09:28:51;;;;;;;28.63;6.72;;;17.90;90.00;;;;;;5011427;28;20045;-75
2024/01/19 09:31:17;;;;;;;27.90;6.38;;;18.00;89.60;;;;;;5007593;28;20098;-73
2024/01/19 09:33:44;;;;;;;32.80;7.80;;;18.20;89.40;;;;;;5013254;28;20064;-78
2024/01/19 09:36:10;;;;;;;28.27;5.75;;;18.20;89.00;;;;;;5013176;28;20025;-82
2024/01/19 09:38:37;;;;;;;30.67;4.85;;;18.10;88.70;;;;;;5012895;28;20428;-75
2024/01/19 09:41:12;;;;;;;27.73;5.45;;;18.10;88.30;;;;;;5013200;28;20106;-82
2024/01/19 09:43:42;;;;;;;25.15;5.20;;;18.10;88.20;;;;;;5011594;28;20033;-76
2024/01/19 09:46:19;;;;;;;27.33;5.97;;;18.10;87.70;;;;;;5005793;28;20034;-80
2024/01/19 09:49:11;;;;;;;34.30;6.55;;;18.30;88.20;;;;;;5012937;28;20061;-73
2024/01/19 09:51:50;;;;;;;29.17;6.40;;;18.40;87.90;;;;;;4998972;28;20045;-72
2024/01/19 09:54:23;;;;;;;26.60;6.03;;;18.40;87.70;;;;;;5012685;28;20443;-71
2024/01/19 09:56:48;;;;;;;27.25;5.85;;;18.50;87.40;;;;;;5012640;28;20420;-75
2024/01/19 09:59:15;;;;;;;37.05;6.75;;;18.50;87.30;;;;;;5012386;28;20041;-74
2024/01/19 10:01:41;;;;;;;27.83;7.05;;;18.50;87.20;;;;;;5012582;28;20038;-74
2024/01/19 10:04:12;;;;;;;23.40;6.60;;;18.50;87.30;;;;;;5012584;28;20535;-76
2024/01/19 10:06:38;;;;;;;26.30;6.55;;;18.50;87.20;;;;;;5012722;28;20056;-73
2024/01/19 10:09:05;;;;;;;31.42;6.32;;;18.50;87.20;;;;;;5012696;28;20491;-69
2024/01/19 10:11:31;;;;;;;29.25;6.45;;;18.60;87.40;;;;;;5006738;28;20046;-75
2024/01/19 10:13:56;;;;;;;36.47;7.57;;;18.60;87.30;;;;;;5012168;28;20395;-75
2024/01/19 10:16:22;;;;;;;27.17;6.38;;;18.70;87.20;;;;;;5012633;28;20072;-75
2024/01/19 10:18:49;;;;;;;28.98;6.13;;;18.70;87.00;;;;;;5012531;28;20045;-74
2024/01/19 10:21:27;;;;;;;27.23;6.38;;;18.70;86.80;;;;;;5012164;28;20026;-72
2024/01/19 10:24:14;;;;;;;29.08;6.35;;;18.70;86.60;;;;;;4995106;28;20403;-72
2024/01/19 10:26:43;;;;;;;27.45;6.35;;;18.80;86.70;;;;;;5012869;28;20046;-73
2024/01/19 10:29:13;;;;;;;34.97;7.25;;;18.90;87.10;;;;;;5012565;28;20033;-72
2024/01/19 10:31:41;;;;;;;30.98;6.53;;;18.90;86.90;;;;;;5012723;28;20132;-72
2024/01/19 10:34:16;;;;;;;33.65;6.45;;;18.90;86.70;;;;;;5012470;28;20038;-72
2024/01/19 10:36:42;;;;;;;33.80;6.95;;;18.90;86.70;;;;;;5013003;28;20133;-72
2024/01/19 10:39:23;;;;;;;32.63;7.00;;;18.90;87.00;;;;;;5012949;28;20153;-73
2024/01/19 10:41:51;;;;;;;28.08;6.55;;;18.90;87.20;;;;;;5011373;28;20045;-73
2024/01/19 10:44:23;;;;;;;34.03;7.90;;;18.90;87.10;;;;;;5005645;28;20033;-74
2024/01/19 10:46:50;;;;;;;29.48;5.97;;;19.00;87.10;;;;;;5001381;28;20031;-73
2024/01/19 10:49:16;;;;;;;26.33;5.82;;;19.00;87.10;;;;;;4992807;28;20447;-75
2024/01/19 10:51:44;;;;;;;28.42;6.20;;;19.10;86.90;;;;;;4991934;28;20422;-73
2024/01/19 10:54:23;;;;;;;29.52;5.43;;;19.10;86.70;;;;;;4992849;28;20030;-73
2024/01/19 10:56:50;;;;;;;30.35;6.20;;;19.20;86.60;;;;;;4992821;28;20034;-74
2024/01/19 10:59:16;;;;;;;25.70;5.85;;;19.20;86.50;;;;;;4992933;28;20089;-74
2024/01/19 11:01:42;;;;;;;27.05;5.55;;;19.20;86.40;;;;;;4992495;28;20486;-73
2024/01/19 11:04:10;;;;;;;30.80;6.50;;;19.30;86.30;;;;;;4999239;28;20076;-73
2024/01/19 11:06:37;;;;;;;22.88;5.95;;;19.30;86.10;;;;;;5015774;28;20041;-74
2024/01/19 11:09:06;;;;;;;26.83;5.80;;;19.30;86.20;;;;;;5016240;28;20113;-73
2024/01/19 11:11:57;;;;;;;27.45;6.20;;;19.40;86.10;;;;;;5015256;28;20040;-74
2024/01/19 11:14:25;;;;;;;25.95;6.90;;;19.60;86.20;;;;;;5006095;28;20033;-74
2024/01/19 11:16:53;;;;;;;27.30;6.75;;;19.60;85.90;;;;;;4997602;28;20053;-75
2024/01/19 11:19:20;;;;;;;25.67;5.90;;;19.70;85.70;;;;;;5015936;28;20137;-77
2024/01/19 11:21:46;;;;;;;21.45;5.68;;;19.80;85.50;;;;;;5016238;28;20034;-75
2024/01/19 11:24:14;;;;;;;24.80;5.45;;;20.00;85.20;;;;;;5015109;28;20502;-77
2024/01/19 11:26:58;;;;;;;25.05;4.47;;;20.10;84.40;;;;;;5015625;28;20407;-74
2024/01/19 11:29:38;;;;;;;17.17;3.63;;;20.10;83.80;;;;;;5015886;28;20038;-74
2024/01/19 11:32:04;;;;;;;23.20;3.45;;;20.10;83.50;;;;;;5015966;28;20372;-74
2024/01/19 11:34:50;;;;;;;18.13;4.35;;;20.10;83.10;;;;;;5015659;28;20034;-73
2024/01/19 11:37:43;;;;;;;18.05;3.92;;;20.10;83.00;;;;;;5015440;28;20045;-75
2024/01/19 11:40:09;;;;;;;19.90;4.75;;;20.00;82.30;;;;;;5015704;28;20042;-74
2024/01/19 11:42:34;;;;;;;20.63;4.45;;;19.80;81.90;;;;;;5015234;28;20030;-74
2024/01/19 11:45:00;;;;;;;18.08;3.70;;;19.80;81.70;;;;;;5015490;28;20041;-75
2024/01/19 11:47:35;;;;;;;15.43;3.65;;;19.80;81.50;;;;;;5008797;28;20088;-75
2024/01/19 11:50:06;;;;;;;14.02;3.65;;;19.70;81.10;;;;;;4995708;28;20408;-73
2024/01/19 11:52:35;;;;;;;20.83;7.05;;;19.60;80.70;;;;;;5000753;28;20037;-75
2024/01/19 11:55:27;;;;;;;19.23;4.72;;;19.50;80.70;;;;;;5015063;28;20022;-75
2024/01/19 11:57:53;;;;;;;19.02;4.13;;;19.40;80.80;;;;;;5002268;28;20046;-78
2024/01/19 12:00:20;;;;;;;20.60;3.88;;;19.30;80.30;;;;;;5014943;28;20040;-75
2024/01/19 12:02:54;;;;;;;25.05;4.93;;;19.30;80.30;;;;;;5014960;28;20033;-81
2024/01/19 12:05:22;;;;;;;18.23;4.22;;;19.20;80.00;;;;;;5015127;28;20038;-78
2024/01/19 12:07:48;;;;;;;19.77;3.75;;;19.20;80.00;;;;;;4998025;28;20113;-81
2024/01/19 12:10:15;;;;;;;16.30;3.78;;;19.10;80.10;;;;;;5015636;28;20081;-75
2024/01/19 12:12:42;;;;;;;19.60;3.85;;;19.20;80.10;;;;;;5015796;28;20044;-82
2024/01/19 12:15:10;;;;;;;17.67;4.10;;;19.10;79.80;;;;;;4996870;28;20034;-73
2024/01/19 12:17:43;;;;;;;19.92;4.70;;;19.10;79.80;;;;;;5015982;28;20058;-75
2024/01/19 12:20:18;;;;;;;21.15;4.75;;;19.20;80.70;;;;;;5013961;28;20404;-73
2024/01/19 12:22:45;;;;;;;18.98;4.22;;;19.30;80.00;;;;;;4996826;28;20042;-73
2024/01/19 12:25:22;;;;;;;23.20;4.05;;;19.40;79.80;;;;;;5015053;28;20087;-74
2024/01/19 12:27:48;;;;;;;13.27;3.80;;;19.60;79.50;;;;;;5044422;28;20038;-75
2024/01/19 12:30:16;;;;;;;17.65;4.13;;;19.70;79.30;;;;;;5014564;28;20034;-74
2024/01/19 12:32:43;;;;;;;23.02;3.70;;;19.70;78.70;;;;;;5014449;28;20026;-72
2024/01/19 12:35:11;;;;;;;16.50;3.63;;;19.70;78.80;;;;;;5014290;28;20110;-73
2024/01/19 12:37:37;;;;;;;21.80;4.22;;;19.70;78.80;;;;;;5013758;28;20045;-74
2024/01/19 12:40:18;;;;;;;17.63;4.05;;;19.70;78.60;;;;;;5008482;28;20049;-73
2024/01/19 12:42:44;;;;;;;21.27;4.60;;;19.80;78.50;;;;;;5007003;28;20400;-72
2024/01/19 12:45:14;;;;;;;19.33;4.13;;;19.90;78.40;;;;;;5014377;28;20030;-73
2024/01/19 12:47:47;;;;;;;18.95;3.95;;;19.90;78.20;;;;;;5014252;28;20045;-73
2024/01/19 12:50:13;;;;;;;14.63;3.72;;;19.90;78.00;;;;;;5034182;28;20105;-74
2024/01/19 12:52:38;;;;;;;20.25;4.10;;;19.80;77.80;;;;;;5034297;28;20184;-73
2024/01/19 12:55:05;;;;;;;25.08;4.30;;;19.80;77.60;;;;;;5033768;28;20060;-74
2024/01/19 12:57:30;;;;;;;21.30;4.13;;;19.70;77.50;;;;;;5033894;28;20522;-74
2024/01/19 13:00:16;;;;;;;16.42;4.07;;;19.70;77.50;;;;;;5033774;28;20037;-73
2024/01/19 13:02:43;;;;;;;19.15;4.93;;;19.80;77.50;;;;;;5033841;28;20037;-73
2024/01/19 13:05:24;;;;;;;21.30;4.20;;;19.80;77.40;;;;;;5033708;28;20036;-72
2024/01/19 13:07:53;;;;;;;17.13;3.97;;;19.80;77.80;;;;;;5033610;28;20125;-73
2024/01/19 13:10:20;;;;;;;17.38;3.95;;;19.80;77.50;;;;;;5033373;28;20034;-70
2024/01/19 13:12:47;;;;;;;16.60;3.92;;;19.80;77.10;;;;;;5032807;28;20029;-75
2024/01/19 13:15:16;;;;;;;17.35;3.67;;;19.80;76.80;;;;;;5032979;28;20484;-74
2024/01/19 13:17:43;;;;;;;19.52;4.40;;;19.80;76.60;;;;;;5032645;28;20040;-74
2024/01/19 13:20:20;;;;;;;19.85;4.40;;;19.80;76.60;;;;;;5033591;28;20045;-73
2024/01/19 13:22:47;;;;;;;21.00;4.10;;;19.80;76.70;;;;;;5033386;28;20052;-74
2024/01/19 13:25:13;;;;;;;22.08;5.28;;;19.70;76.70;;;;;;5033464;28;20065;-73
2024/01/19 13:27:38;;;;;;;17.23;4.65;;;19.60;76.70;;;;;;5032144;28;20057;-73
2024/01/19 13:30:05;;;;;;;17.63;4.13;;;19.50;76.60;;;;;;5033256;28;20087;-72
2024/01/19 13:32:31;;;;;;;18.55;4.18;;;19.40;76.90;;;;;;5033477;28;20036;-73
2024/01/19 13:34:56;;;;;;;19.75;4.30;;;19.30;77.10;;;;;;5033167;28;20037;-75
2024/01/19 13:37:22;;;;;;;26.58;4.95;;;19.40;77.20;;;;;;5033125;28;20499;-72
2024/01/19 13:39:51;;;;;;;19.33;4.88;;;19.40;77.10;;;;;;5033532;28;20459;-73
2024/01/19 13:42:19;;;;;;;20.05;5.05;;;19.30;77.00;;;;;;5033879;28;20384;-75
2024/01/19 13:44:45;;;;;;;19.80;4.05;;;19.30;77.70;;;;;;5033076;28;20439;-72
2024/01/19 13:47:10;;;;;;;13.18;3.45;;;19.30;76.90;;;;;;5032806;28;20037;-73
2024/01/19 13:49:36;;;;;;;17.50;4.60;;;19.20;76.90;;;;;;5032975;28;20034;-71
2024/01/19 13:52:03;;;;;;;19.98;5.38;;;19.10;77.00;;;;;;5032983;28;20116;-70
2024/01/19 13:54:29;;;;;;;17.73;3.95;;;19.10;77.80;;;;;;5032951;28;20501;-72
2024/01/19 13:56:54;;;;;;;18.95;3.80;;;19.00;77.00;;;;;;5032657;28;20045;-72
2024/01/19 13:59:20;;;;;;;23.92;7.68;;;19.00;77.10;;;;;;5032845;28;20033;-72
2024/01/19 14:01:47;;;;;;;25.55;6.20;;;19.00;77.30;;;;;;5033186;28;20037;-72
2024/01/19 14:04:13;;;;;;;21.40;4.70;;;18.90;77.50;;;;;;5032987;28;20041;-70
2024/01/19 14:06:41;;;;;;;26.08;6.13;;;18.90;77.90;;;;;;5032612;28;20390;-70
2024/01/19 14:09:08;;;;;;;22.30;4.85;;;18.90;78.20;;;;;;5032726;28;20041;-69
2024/01/19 14:11:33;;;;;;;28.77;5.53;;;18.90;78.40;;;;;;5032874;28;20373;-70
2024/01/19 14:13:59;;;;;;;27.40;5.22;;;18.90;78.70;;;;;;5032633;28;20088;-69
2024/01/19 14:16:25;;;;;;;29.75;6.82;;;18.90;78.80;;;;;;5032858;28;20041;-70
2024/01/19 14:18:51;;;;;;;20.95;5.47;;;18.90;78.80;;;;;;5032680;28;20029;-69
2024/01/19 14:21:16;;;;;;;29.00;8.35;;;18.90;78.80;;;;;;5032100;28;20025;-70
2024/01/19 14:23:43;;;;;;;21.40;5.00;;;18.90;79.00;;;;;;5032420;28;20029;-73
2024/01/19 14:26:09;;;;;;;23.80;4.43;;;18.90;78.60;;;;;;5032341;28;20519;-69
2024/01/19 14:28:35;;;;;;;24.42;6.13;;;18.80;78.30;;;;;;5032301;28;20061;-70
2024/01/19 14:31:02;;;;;;;21.95;4.40;;;18.80;78.80;;;;;;5032648;28;20072;-71
2024/01/19 14:33:28;;;;;;;22.77;5.03;;;18.80;78.90;;;;;;5032317;28;20037;-70
2024/01/19 14:35:54;;;;;;;22.77;5.22;;;18.70;78.90;;;;;;5032291;28;20395;-70
2024/01/19 14:38:20;;;;;;;22.40;5.00;;;18.70;79.10;;;;;;5031905;28;20153;-70
2024/01/19 14:40:45;;;;;;;21.95;4.78;;;18.70;79.40;;;;;;5032579;28;20037;-69
2024/01/19 14:43:11;;;;;;;29.77;5.40;;;18.70;79.30;;;;;;5032564;28;20030;-69
2024/01/19 14:45:37;;;;;;;24.92;5.60;;;18.60;79.40;;;;;;5014779;28;20049;-69
2024/01/19 14:48:03;;;;;;;26.58;6.95;;;18.60;79.60;;;;;;5045482;28;20087;-70
2024/01/19 14:50:29;;;;;;;26.75;5.50;;;18.60;79.90;;;;;;5028522;28;20038;-70
2024/01/19 14:53:01;;;;;;;20.00;4.95;;;18.50;79.80;;;;;;5013683;28;20048;-70
2024/01/19 14:55:27;;;;;;;29.55;5.28;;;18.50;80.00;;;;;;5031978;28;20033;-70
2024/01/19 14:57:53;;;;;;;22.27;5.47;;;18.40;80.10;;;;;;5031762;28;20081;-70
2024/01/19 15:00:19;;;;;;;20.75;5.28;;;18.40;80.10;;;;;;5031788;28;20442;-70
2024/01/19 15:02:45;;;;;;;16.67;4.30;;;18.30;80.20;;;;;;5031479;28;20033;-70
2024/01/19 15:05:11;;;;;;;24.00;4.55;;;18.30;80.20;;;;;;5013863;28;20414;-69
2024/01/19 15:07:36;;;;;;;23.45;5.43;;;18.20;80.10;;;;;;5031594;28;20038;-68
2024/01/19 15:10:03;;;;;;;20.83;5.05;;;18.20;80.30;;;;;;5031791;28;20036;-70
2024/01/19 15:12:29;;;;;;;25.20;5.00;;;18.20;80.60;;;;;;5031363;28;20068;-73
2024/01/19 15:14:55;;;;;;;20.50;4.53;;;18.10;80.70;;;;;;5031563;28;20030;-70
2024/01/19 15:17:20;;;;;;;23.67;5.47;;;18.10;80.80;;;;;;5013533;28;20069;-69
2024/01/19 15:19:52;;;;;;;18.35;4.50;;;18.10;80.90;;;;;;5031553;28;20041;-69
2024/01/19 15:22:20;;;;;;;24.08;4.55;;;18.00;81.00;;;;;;5031490;28;20050;-68
2024/01/19 15:24:47;;;;;;;24.00;5.10;;;18.00;81.20;;;;;;5031480;28;20140;-69
2024/01/19 15:27:13;;;;;;;22.98;4.80;;;18.00;81.40;;;;;;5030941;28;20522;-69
2024/01/19 15:29:38;;;;;;;26.13;5.15;;;17.90;81.40;;;;;;5031607;28;20053;-70
2024/01/19 15:32:04;;;;;;;20.38;5.03;;;17.90;81.60;;;;;;5030967;28;20105;-69
2024/01/19 15:34:30;;;;;;;20.20;5.28;;;17.90;81.60;;;;;;5030602;28;20554;-69
2024/01/19 15:36:56;;;;;;;19.58;5.07;;;17.90;81.80;;;;;;5031059;28;20103;-69
2024/01/19 15:39:22;;;;;;;23.65;5.68;;;17.80;81.70;;;;;;5031349;28;20109;-68
2024/01/19 15:41:49;;;;;;;22.55;4.90;;;17.80;81.90;;;;;;5031030;28;20053;-70
2024/01/19 15:44:14;;;;;;;28.00;5.32;;;17.70;82.10;;;;;;5031093;28;20451;-70
2024/01/19 15:46:40;;;;;;;21.45;5.10;;;17.70;82.40;;;;;;5030914;28;20077;-69
2024/01/19 15:49:06;;;;;;;17.60;5.45;;;17.80;82.60;;;;;;5030938;28;20485;-71
2024/01/19 15:51:35;;;;;;;19.65;5.13;;;17.70;82.60;;;;;;5034629;28;20104;-70
2024/01/19 15:54:02;;;;;;;25.27;6.30;;;17.70;82.70;;;;;;5034853;28;20349;-68
2024/01/19 15:56:28;;;;;;;21.92;5.63;;;17.70;82.90;;;;;;5034241;28;20060;-70
2024/01/19 15:58:54;;;;;;;24.08;5.13;;;17.70;82.90;;;;;;5034702;28;20538;-70
2024/01/19 16:01:20;;;;;;;26.38;6.35;;;17.70;83.00;;;;;;5034441;28;20041;-71
2024/01/19 16:03:47;;;;;;;22.83;5.45;;;17.70;83.20;;;;;;5034166;28;20033;-73
2024/01/19 16:06:14;;;;;;;24.85;6.30;;;17.70;83.30;;;;;;5034138;28;20061;-73
2024/01/19 16:08:40;;;;;;;21.00;6.47;;;17.70;83.50;;;;;;5034789;28;20030;-73
2024/01/19 16:11:06;;;;;;;27.25;6.35;;;17.70;83.50;;;;;;5034718;28;20033;-73
2024/01/19 16:13:33;;;;;;;29.05;6.10;;;17.70;83.80;;;;;;5034803;28;20057;-74
2024/01/19 16:16:05;;;;;;;30.63;7.10;;;17.70;84.00;;;;;;5034815;28;20088;-72
2024/01/19 16:18:30;;;;;;;26.48;6.90;;;17.70;84.00;;;;;;5034190;28;20049;-72
2024/01/19 16:20:56;;;;;;;24.23;5.88;;;17.60;84.10;;;;;;5016521;28;20510;-74
2024/01/19 16:23:22;;;;;;;24.27;5.65;;;17.70;84.30;;;;;;5034345;28;20068;-73
2024/01/19 16:25:47;;;;;;;28.27;6.40;;;17.60;84.20;;;;;;5033919;28;20033;-75
2024/01/19 16:28:13;;;;;;;25.63;5.65;;;17.70;84.40;;;;;;5033684;28;20072;-73
2024/01/19 16:30:43;;;;;;;40.20;12.60;;;17.60;84.30;;;;;;5033956;28;20434;-71
2024/01/19 16:33:10;;;;;;;28.63;7.95;;;17.70;84.60;;;;;;5034077;28;20103;-73
2024/01/19 16:35:36;;;;;;;21.27;6.25;;;17.60;84.60;;;;;;5033993;28;20041;-72
2024/01/19 16:38:02;;;;;;;20.17;5.80;;;17.60;84.50;;;;;;5033926;28;20050;-70
2024/01/19 16:40:28;;;;;;;24.15;6.80;;;17.60;84.70;;;;;;5033525;28;20501;-72
2024/01/19 16:42:53;;;;;;;28.35;8.30;;;17.60;84.80;;;;;;5033688;28;20069;-71
2024/01/19 16:45:19;;;;;;;26.35;7.15;;;17.50;84.70;;;;;;5033739;28;20404;-72
2024/01/19 16:47:45;;;;;;;29.50;7.10;;;17.60;84.90;;;;;;5033719;28;20448;-66
2024/01/19 16:50:11;;;;;;;24.88;7.18;;;17.50;84.90;;;;;;5033871;28;20091;-71
2024/01/19 16:52:36;;;;;;;28.70;7.40;;;17.50;85.10;;;;;;5033789;28;20064;-73
2024/01/19 16:55:03;;;;;;;27.05;7.05;;;17.40;85.10;;;;;;5033746;28;20063;-72
2024/01/19 16:57:29;;;;;;;21.00;6.88;;;17.40;85.30;;;;;;5034082;28;20049;-72
2024/01/19 16:59:55;;;;;;;27.45;6.55;;;17.40;85.40;;;;;;5015894;28;20096;-70
2024/01/19 17:02:21;;;;;;;29.20;7.15;;;17.40;85.50;;;;;;5033238;28;20511;-70
2024/01/19 17:04:48;;;;;;;30.48;7.55;;;17.30;85.30;;;;;;5033984;28;20037;-71
2024/01/19 17:07:14;;;;;;;29.65;7.53;;;17.30;85.50;;;;;;5034144;28;20037;-70
2024/01/19 17:09:40;;;;;;;26.90;7.63;;;17.30;85.70;;;;;;5034017;28;20037;-71
2024/01/19 17:12:06;;;;;;;22.88;6.57;;;17.30;85.80;;;;;;5034086;28;20052;-70
2024/01/19 17:14:35;;;;;;;30.38;7.25;;;17.20;85.90;;;;;;5033585;28;20030;-72
2024/01/19 17:17:01;;;;;;;29.17;6.70;;;17.30;86.10;;;;;;5031216;28;21821;-72
2024/01/19 17:19:27;;;;;;;32.22;7.60;;;17.20;85.80;;;;;;5019062;28;20030;-70
2024/01/19 17:21:53;;;;;;;33.30;7.82;;;17.20;86.10;;;;;;5051470;28;20037;-70
2024/01/19 17:24:19;;;;;;;22.98;4.60;;;17.20;86.00;;;;;;5023176;28;20125;-72
2024/01/19 17:26:44;;;;;;;28.27;6.40;;;17.10;84.90;;;;;;5032531;28;20507;-69
2024/01/19 17:29:14;;;;;;;18.15;5.28;;;17.00;84.40;;;;;;5032991;28;20080;-71
2024/01/19 17:31:40;;;;;;;20.75;5.75;;;17.00;84.00;;;;;;5032983;28;20033;-70
2024/01/19 17:34:06;;;;;;;23.02;5.10;;;16.90;83.20;;;;;;5033355;28;20033;-71
2024/01/19 17:36:31;;;;;;;27.17;5.75;;;16.80;82.50;;;;;;5032390;28;20372;-71
2024/01/19 17:38:58;;;;;;;19.65;5.50;;;16.90;82.50;;;;;;5032430;28;20482;-71
2024/01/19 17:41:24;;;;;;;25.55;6.38;;;16.90;82.20;;;;;;5032973;28;20096;-72
2024/01/19 17:43:50;;;;;;;22.83;5.57;;;16.90;82.00;;;;;;5033428;28;20033;-71
2024/01/19 17:46:16;;;;;;;26.98;4.70;;;16.90;81.80;;;;;;5032611;28;20039;-73
2024/01/19 17:48:42;;;;;;;24.63;4.60;;;16.90;81.20;;;;;;5032836;28;20116;-71
2024/01/19 17:51:07;;;;;;;20.25;4.88;;;16.90;81.10;;;;;;5032407;28;20487;-72
2024/01/19 17:53:33;;;;;;;22.05;4.93;;;16.90;80.80;;;;;;5032616;28;20049;-71
2024/01/19 17:55:59;;;;;;;20.10;5.05;;;16.90;80.90;;;;;;5032723;28;20084;-71
2024/01/19 17:58:25;;;;;;;24.35;5.97;;;16.90;80.70;;;;;;5031971;28;20055;-72
2024/01/19 18:00:52;;;;;;;22.90;6.22;;;16.90;80.30;;;;;;5032381;28;20109;-72
2024/01/19 18:03:18;;;;;;;20.55;5.25;;;16.90;80.10;;;;;;5032520;28;20091;-71
2024/01/19 18:05:44;;;;;;;23.02;5.88;;;16.90;79.80;;;;;;5032684;28;20045;-70
2024/01/19 18:08:12;;;;;;;17.13;4.20;;;16.90;79.30;;;;;;5032691;28;20037;-71
2024/01/19 18:10:38;;;;;;;21.20;4.25;;;16.90;79.00;;;;;;5032730;28;20044;-71
